aviador You're here:

KOZR Decoded Metar

OZARK/CAIRNS AAF in AL, USA
Report Time2017-11-24 08:56:00
UTC Time2017-11-24 09:14:58
Flight Rules vfr VFR
Wind360° at 04 kt
W.Decomp.*RWY 36: 4.0 kt HW 0.2 kt RCW
RWY 06: 2.2 kt HW 3.4 kt LCW
Visibility9999 m
Phenomena:N/A
Clouds:N/A
Expected CloudBase > 800 ft AGL from Temp-Dew spread
CeilingNone
Temp09°C (ISA -5)
Dew Point07°C (87% RH)
AAT6.9°C
QNH1015 hPa
Density Alt-272 ft
Elevation305 ft
Report Wrong Elevation
Raw Report
KOZR 240856Z AUTO 36004KT 10SM CLR 09/07 A2998 RMK AO2 SLP154
T00880068 55000=

Extra information for KOZR:More info

Metar Taf Metar & Taf Last 4 Metars F.Rules Stats Wind Profile Meteogram Temp Stats Airport Information Weather charts Add Link Nearby VenuesMetar ALERT Operation Metar Decoded Social comments

AIRNAV info for KOZR